Time;durP1;ratioP1;P1;durP2;ratioP2;P2;SDS_P1;SDS_P2;PMS_P1;PMS_P2;Temp;Humidity;BMP_temperature;BMP_pressure;BME280_temperature;BME280_humidity;BME280_pressure;Samples;Min_cycle;Max_cycle;Signal;HPM_P1;HPM_P2
2021/08/04 00:00:54;;;;;;;;;;;;;;;15.13;100.00;98741.53;5094143;28;19924;-81
2021/08/04 00:03:21;;;;;;;;;;;;;;;15.33;100.00;98741.16;5093070;28;19931;-81
2021/08/04 00:05:48;;;;;;;;;;;;;;;15.42;100.00;98747.66;5092466;28;19974;-81
2021/08/04 00:08:15;;;;;;;;;;;;;;;15.36;100.00;98743.03;5093805;28;19924;-80
2021/08/04 00:10:42;;;;;;;;;;;;;;;15.18;100.00;98746.56;5093752;28;20445;-80
2021/08/04 00:13:09;;;;;;;;;;;;;;;15.16;100.00;98743.44;5092932;28;20391;-80
2021/08/04 00:15:36;;;;;;;;;;;;;;;14.58;100.00;98741.69;5096432;28;20015;-80
2021/08/04 00:18:04;;;;;;;;;;;;;;;14.67;100.00;98744.56;5062343;28;19931;-80
2021/08/04 00:20:31;;;;;;;;;;;;;;;15.02;100.00;98743.22;5095598;28;20387;-80
2021/08/04 00:22:58;;;;;;;;;;;;;;;15.07;100.00;98746.19;5096272;28;19924;-81
2021/08/04 00:25:26;;;;;;;;;;;;;;;15.07;100.00;98734.94;5095969;28;19931;-80
2021/08/04 00:27:53;;;;;;;;;;;;;;;14.77;100.00;98746.19;5095977;28;19947;-80
2021/08/04 00:30:21;;;;;;;;;;;;;;;14.38;100.00;98742.00;5079015;28;19979;-80
2021/08/04 00:32:50;;;;;;;;;;;;;;;14.40;100.00;98743.13;5095629;28;19960;-80
2021/08/04 00:35:17;;;;;;;;;;;;;;;14.10;100.00;98740.97;5112818;28;20021;-80
2021/08/04 00:37:44;;;;;;;;;;;;;;;13.53;100.00;98752.56;5081042;28;19924;-80
2021/08/04 00:40:11;;;;;;;;;;;;;;;13.97;100.00;98747.84;5096069;28;19924;-82
2021/08/04 00:42:39;;;;;;;;;;;;;;;14.52;100.00;98749.94;5078564;28;19977;-80
2021/08/04 00:45:07;;;;;;;;;;;;;;;14.74;100.00;98745.06;5095587;28;19931;-79
2021/08/04 00:47:36;;;;;;;;;;;;;;;14.80;100.00;98745.28;5078577;28;19972;-80
2021/08/04 00:50:04;;;;;;;;;;;;;;;14.54;100.00;98739.00;5095407;28;20351;-79
2021/08/04 00:52:32;;;;;;;;;;;;;;;14.52;100.00;98744.31;5095736;28;19973;-79
2021/08/04 00:55:00;;;;;;;;;;;;;;;14.34;100.00;98741.38;5078287;28;19985;-80
2021/08/04 00:57:27;;;;;;;;;;;;;;;14.03;100.00;98746.03;5078561;28;19924;-80
2021/08/04 01:00:04;;;;;;;;;;;;;;;14.04;100.00;98744.81;5078107;28;19928;-80
2021/08/04 01:02:37;;;;;;;;;;;;;;;14.24;100.00;98751.72;5095449;28;19931;-80
2021/08/04 01:05:06;;;;;;;;;;;;;;;14.40;100.00;98753.59;5094919;28;19932;-80
2021/08/04 01:07:37;;;;;;;;;;;;;;;14.55;100.00;98749.03;5096004;28;19924;-81
2021/08/04 01:10:13;;;;;;;;;;;;;;;14.79;100.00;98741.69;5067922;28;20019;-80
2021/08/04 01:13:07;;;;;;;;;;;;;;;14.75;100.00;98752.28;5096197;28;19935;-80
2021/08/04 01:15:37;;;;;;;;;;;;;;;14.04;100.00;98747.63;5093004;28;20282;-80
2021/08/04 01:18:05;;;;;;;;;;;;;;;13.57;100.00;98749.63;5095236;28;19931;-80
2021/08/04 01:20:33;;;;;;;;;;;;;;;14.38;100.00;98747.63;5081878;28;19931;-80
2021/08/04 01:23:21;;;;;;;;;;;;;;;14.58;100.00;98742.47;5080884;28;20390;-80
2021/08/04 01:25:52;;;;;;;;;;;;;;;14.62;100.00;98737.50;5071080;28;19931;-80
2021/08/04 01:28:27;;;;;;;;;;;;;;;14.64;100.00;98734.22;5085262;28;19924;-80
2021/08/04 01:31:03;;;;;;;;;;;;;;;14.70;100.00;98733.19;5077672;28;19931;-80
2021/08/04 01:33:31;;;;;;;;;;;;;;;14.39;100.00;98735.94;5094401;28;20394;-80
2021/08/04 01:35:59;;;;;;;;;;;;;;;14.52;100.00;98733.84;5094504;28;19925;-80
2021/08/04 01:38:27;;;;;;;;;;;;;;;14.48;100.00;98738.00;5094522;28;19924;-80
2021/08/04 01:40:55;;;;;;;;;;;;;;;14.17;100.00;98737.13;5094293;28;19947;-80
2021/08/04 01:43:24;;;;;;;;;;;;;;;13.76;100.00;98743.75;5093941;28;19973;-81
2021/08/04 01:45:53;;;;;;;;;;;;;;;14.21;100.00;98734.97;5094724;28;19973;-80
2021/08/04 01:48:21;;;;;;;;;;;;;;;14.32;100.00;98741.81;5094193;28;19934;-80
2021/08/04 01:50:49;;;;;;;;;;;;;;;14.47;100.00;98742.06;5095418;28;19990;-80
2021/08/04 01:53:16;;;;;;;;;;;;;;;14.41;100.00;98735.47;5077160;28;19924;-81
2021/08/04 01:55:44;;;;;;;;;;;;;;;14.45;100.00;98736.91;5094293;28;19930;-81
2021/08/04 01:58:36;;;;;;;;;;;;;;;14.45;100.00;98727.69;5074066;28;19929;-80
2021/08/04 02:01:03;;;;;;;;;;;;;;;14.20;100.00;98722.97;5049437;28;20305;-80
2021/08/04 02:03:30;;;;;;;;;;;;;;;13.26;100.00;98729.00;5076940;28;20337;-80
2021/08/04 02:06:01;;;;;;;;;;;;;;;13.62;100.00;98732.22;5093959;28;19931;-80
2021/08/04 02:08:34;;;;;;;;;;;;;;;13.92;100.00;98735.19;5076428;28;20383;-81
2021/08/04 02:11:18;;;;;;;;;;;;;;;13.96;100.00;98737.88;5093906;28;19924;-80
2021/08/04 02:13:51;;;;;;;;;;;;;;;13.02;100.00;98734.16;5076810;28;19931;-80
2021/08/04 02:16:24;;;;;;;;;;;;;;;13.07;100.00;98735.63;5088720;28;19924;-80
2021/08/04 02:19:16;;;;;;;;;;;;;;;13.54;100.00;98733.69;5076865;28;20436;-80
2021/08/04 02:21:47;;;;;;;;;;;;;;;13.53;100.00;98734.91;5085129;28;20429;-80
2021/08/04 02:24:16;;;;;;;;;;;;;;;13.53;100.00;98727.28;5091297;28;19924;-81
2021/08/04 02:27:09;;;;;;;;;;;;;;;13.35;100.00;98734.72;5050690;28;19931;-81
2021/08/04 02:29:38;;;;;;;;;;;;;;;13.67;100.00;98734.44;5109625;28;20495;-81
2021/08/04 02:32:06;;;;;;;;;;;;;;;13.95;100.00;98739.88;5093127;28;19934;-81
2021/08/04 02:34:34;;;;;;;;;;;;;;;14.09;100.00;98722.53;5076499;28;19924;-81
2021/08/04 02:37:02;;;;;;;;;;;;;;;14.09;100.00;98716.94;5093726;28;20027;-81
2021/08/04 02:39:29;;;;;;;;;;;;;;;14.11;100.00;98724.91;5076180;28;20015;-81
2021/08/04 02:41:57;;;;;;;;;;;;;;;13.97;100.00;98719.78;5094493;28;19925;-81
2021/08/04 02:44:24;;;;;;;;;;;;;;;13.96;100.00;98716.19;5076682;28;19966;-81
2021/08/04 02:46:52;;;;;;;;;;;;;;;13.84;100.00;98716.22;5094445;28;19924;-81
2021/08/04 02:49:19;;;;;;;;;;;;;;;13.04;100.00;98720.47;5092924;28;19966;-83
2021/08/04 02:51:47;;;;;;;;;;;;;;;13.19;100.00;98715.19;5059162;28;20325;-83
2021/08/04 02:54:17;;;;;;;;;;;;;;;12.42;100.00;98718.28;5093171;28;19931;-80
2021/08/04 02:56:44;;;;;;;;;;;;;;;12.75;100.00;98717.72;5093010;28;19924;-80
2021/08/04 02:59:11;;;;;;;;;;;;;;;12.04;100.00;98723.00;5092769;28;19928;-81
2021/08/04 03:01:38;;;;;;;;;;;;;;;11.82;100.00;98724.78;5093136;28;20385;-81
2021/08/04 03:04:06;;;;;;;;;;;;;;;12.18;100.00;98726.19;5092990;28;19928;-81
2021/08/04 03:06:33;;;;;;;;;;;;;;;12.96;100.00;98724.69;5075623;28;19930;-80
2021/08/04 03:09:00;;;;;;;;;;;;;;;13.31;100.00;98712.41;5075642;28;19936;-81
2021/08/04 03:11:28;;;;;;;;;;;;;;;13.47;100.00;98720.69;5094130;28;19931;-84
2021/08/04 03:13:56;;;;;;;;;;;;;;;13.54;100.00;98708.44;5070943;28;20019;-80
2021/08/04 03:16:23;;;;;;;;;;;;;;;13.46;100.00;98712.72;5083699;28;19924;-79
2021/08/04 03:18:50;;;;;;;;;;;;;;;12.87;100.00;98706.97;5091879;28;19976;-79
2021/08/04 03:21:17;;;;;;;;;;;;;;;13.18;100.00;98713.59;5093118;28;19970;-79
2021/08/04 03:23:44;;;;;;;;;;;;;;;13.42;100.00;98712.06;5108944;28;20018;-80
2021/08/04 03:26:14;;;;;;;;;;;;;;;13.49;100.00;98707.00;5077696;28;19978;-80
2021/08/04 03:28:42;;;;;;;;;;;;;;;13.58;100.00;98706.28;5063273;28;19963;-80
2021/08/04 03:31:09;;;;;;;;;;;;;;;13.67;100.00;98712.00;5087053;28;19924;-80
2021/08/04 03:33:36;;;;;;;;;;;;;;;13.33;100.00;98709.16;5099759;28;19924;-80
2021/08/04 03:36:03;;;;;;;;;;;;;;;13.50;100.00;98707.75;5093212;28;19924;-80
2021/08/04 03:38:31;;;;;;;;;;;;;;;13.50;100.00;98696.53;5093430;28;19936;-80
2021/08/04 03:40:58;;;;;;;;;;;;;;;13.51;100.00;98703.72;5092376;28;19931;-80
2021/08/04 03:43:25;;;;;;;;;;;;;;;13.48;100.00;98711.00;5061507;28;19924;-81
2021/08/04 03:45:52;;;;;;;;;;;;;;;13.47;100.00;98708.66;5089403;28;19924;-80
2021/08/04 03:48:19;;;;;;;;;;;;;;;13.22;100.00;98708.69;5091980;28;20307;-80
2021/08/04 03:50:46;;;;;;;;;;;;;;;13.32;100.00;98713.16;5079381;28;19935;-81
2021/08/04 03:53:13;;;;;;;;;;;;;;;12.49;100.00;98710.50;5097470;28;19932;-80
2021/08/04 03:55:40;;;;;;;;;;;;;;;12.07;100.00;98714.47;5096500;28;19935;-82
2021/08/04 03:58:07;;;;;;;;;;;;;;;12.20;100.00;98723.75;5100691;28;19930;-80
2021/08/04 04:00:34;;;;;;;;;;;;;;;12.59;100.00;98729.00;5097354;28;19924;-80
2021/08/04 04:03:02;;;;;;;;;;;;;;;12.00;100.00;98728.69;5079712;28;19924;-80
2021/08/04 04:05:29;;;;;;;;;;;;;;;11.88;100.00;98729.41;5097197;28;20372;-80
2021/08/04 04:07:56;;;;;;;;;;;;;;;12.05;100.00;98721.75;5078838;28;20053;-80
2021/08/04 04:10:23;;;;;;;;;;;;;;;12.32;100.00;98725.81;5095767;28;19924;-80
2021/08/04 04:12:54;;;;;;;;;;;;;;;12.74;100.00;98718.16;5096004;28;19928;-81
2021/08/04 04:15:21;;;;;;;;;;;;;;;12.92;100.00;98723.25;5096842;28;20017;-80
2021/08/04 04:17:48;;;;;;;;;;;;;;;13.01;100.00;98726.19;5095840;28;19931;-80
2021/08/04 04:20:15;;;;;;;;;;;;;;;12.41;100.00;98720.34;5095550;28;19924;-80
2021/08/04 04:22:44;;;;;;;;;;;;;;;12.04;100.00;98732.16;5079019;28;20019;-83
2021/08/04 04:25:12;;;;;;;;;;;;;;;12.15;100.00;98732.69;5075733;28;19939;-80
2021/08/04 04:27:40;;;;;;;;;;;;;;;12.32;100.00;98731.41;5082910;28;19924;-80
2021/08/04 04:30:08;;;;;;;;;;;;;;;12.57;100.00;98730.69;5079153;28;19925;-81
2021/08/04 04:32:35;;;;;;;;;;;;;;;12.60;100.00;98738.97;5095229;28;19970;-80
2021/08/04 04:35:03;;;;;;;;;;;;;;;12.09;100.00;98734.44;5095711;28;19932;-80
2021/08/04 04:37:30;;;;;;;;;;;;;;;11.92;100.00;98741.28;5078581;28;19931;-80
2021/08/04 04:39:58;;;;;;;;;;;;;;;12.43;100.00;98742.31;5096759;28;20476;-81
2021/08/04 04:42:25;;;;;;;;;;;;;;;12.78;100.00;98747.66;5078507;28;19946;-80
2021/08/04 04:44:52;;;;;;;;;;;;;;;12.92;100.00;98748.47;5095075;28;20018;-81
2021/08/04 04:47:19;;;;;;;;;;;;;;;12.48;100.00;98753.75;5095229;28;19924;-81
2021/08/04 04:49:47;;;;;;;;;;;;;;;11.79;100.00;98754.44;5095106;28;20033;-80
2021/08/04 04:52:14;;;;;;;;;;;;;;;12.05;100.00;98750.56;5078278;28;20531;-80
2021/08/04 04:54:41;;;;;;;;;;;;;;;12.28;100.00;98752.34;5096149;28;19927;-80
2021/08/04 04:57:08;;;;;;;;;;;;;;;12.74;100.00;98749.78;5078594;28;19924;-80
2021/08/04 04:59:35;;;;;;;;;;;;;;;12.94;100.00;98748.78;5078272;28;19931;-80
2021/08/04 05:02:03;;;;;;;;;;;;;;;13.05;100.00;98741.69;5094777;28;19971;-80
2021/08/04 05:04:30;;;;;;;;;;;;;;;13.18;100.00;98738.84;5095229;28;19924;-80
2021/08/04 05:06:57;;;;;;;;;;;;;;;13.31;100.00;98739.66;5077872;28;19950;-81
2021/08/04 05:09:24;;;;;;;;;;;;;;;13.25;100.00;98747.88;5091186;28;20015;-80
2021/08/04 05:11:52;;;;;;;;;;;;;;;13.25;100.00;98742.25;5093739;28;20280;-80
2021/08/04 05:14:19;;;;;;;;;;;;;;;13.08;100.00;98748.41;5094781;28;19924;-81
2021/08/04 05:16:47;;;;;;;;;;;;;;;13.33;100.00;98743.56;5094280;28;19928;-80
2021/08/04 05:19:14;;;;;;;;;;;;;;;13.47;100.00;98747.94;5094647;28;19931;-80
2021/08/04 05:21:42;;;;;;;;;;;;;;;13.39;100.00;98750.19;5095156;28;19928;-80
2021/08/04 05:24:09;;;;;;;;;;;;;;;13.54;100.00;98751.31;5095590;28;19928;-80
2021/08/04 05:26:36;;;;;;;;;;;;;;;12.83;100.00;98743.50;5077626;28;19928;-81
2021/08/04 05:29:03;;;;;;;;;;;;;;;13.32;100.00;98744.81;5077912;28;19928;-81
2021/08/04 05:31:31;;;;;;;;;;;;;;;13.49;100.00;98746.28;5057971;28;20275;-81
2021/08/04 05:33:58;;;;;;;;;;;;;;;13.59;100.00;98750.75;5090672;28;19924;-81
2021/08/04 05:36:25;;;;;;;;;;;;;;;13.81;100.00;98748.03;5094358;28;19989;-81
2021/08/04 05:38:53;;;;;;;;;;;;;;;13.99;100.00;98751.00;5094310;28;19924;-81
2021/08/04 05:41:21;;;;;;;;;;;;;;;14.19;100.00;98751.50;5095237;28;20280;-81
2021/08/04 05:43:48;;;;;;;;;;;;;;;14.35;100.00;98756.97;5095469;28;20283;-81
2021/08/04 05:46:15;;;;;;;;;;;;;;;14.41;100.00;98752.34;5093661;28;20027;-80
2021/08/04 05:48:42;;;;;;;;;;;;;;;14.48;100.00;98743.63;5094246;28;20327;-77
2021/08/04 05:51:09;;;;;;;;;;;;;;;14.65;100.00;98756.25;5088504;28;20289;-80
2021/08/04 05:53:36;;;;;;;;;;;;;;;14.79;100.00;98752.13;5091162;28;19924;-84
2021/08/04 05:56:03;;;;;;;;;;;;;;;15.19;100.00;98753.75;5064920;28;19934;-80
2021/08/04 05:58:30;;;;;;;;;;;;;;;15.43;100.00;98762.50;5097664;28;20367;-88
2021/08/04 06:00:58;;;;;;;;;;;;;;;15.41;100.00;98754.53;5091768;28;20261;-82
2021/08/04 06:03:25;;;;;;;;;;;;;;;14.85;100.00;98755.91;5090605;28;19924;-81
2021/08/04 06:05:53;;;;;;;;;;;;;;;15.16;100.00;98749.06;5087486;28;19924;-80
2021/08/04 06:08:20;;;;;;;;;;;;;;;15.52;100.00;98760.53;5086602;28;20320;-81
2021/08/04 06:10:48;;;;;;;;;;;;;;;15.97;100.00;98751.41;5073323;28;20333;-80
2021/08/04 06:13:15;;;;;;;;;;;;;;;16.15;100.00;98757.84;5070440;28;19950;-80
2021/08/04 06:15:47;;;;;;;;;;;;;;;15.84;100.00;98754.34;5082910;28;19924;-81
2021/08/04 06:18:14;;;;;;;;;;;;;;;15.88;100.00;98763.44;5090495;28;20416;-79
2021/08/04 06:20:41;;;;;;;;;;;;;;;16.03;100.00;98772.88;5096047;28;20007;-80
2021/08/04 06:23:08;;;;;;;;;;;;;;;15.96;100.00;98767.50;5073675;28;19928;-80
2021/08/04 06:25:35;;;;;;;;;;;;;;;16.24;100.00;98766.31;5090150;28;20032;-80
2021/08/04 06:28:02;;;;;;;;;;;;;;;16.04;100.00;98760.34;5090858;28;20379;-80
2021/08/04 06:30:29;;;;;;;;;;;;;;;16.28;100.00;98760.53;5091507;28;20298;-80
2021/08/04 06:32:56;;;;;;;;;;;;;;;16.64;100.00;98760.56;5084850;28;20007;-80
2021/08/04 06:35:24;;;;;;;;;;;;;;;16.85;100.00;98758.78;5094291;28;19931;-80
2021/08/04 06:37:52;;;;;;;;;;;;;;;17.31;100.00;98758.19;5091735;28;20019;-79
2021/08/04 06:40:19;;;;;;;;;;;;;;;17.63;100.00;98760.28;5082567;28;20416;-80
2021/08/04 06:42:46;;;;;;;;;;;;;;;17.87;100.00;98749.03;5093697;28;19928;-80
2021/08/04 06:45:13;;;;;;;;;;;;;;;18.06;100.00;98747.63;5092895;28;20014;-80
2021/08/04 06:47:40;;;;;;;;;;;;;;;18.30;100.00;98748.41;5086928;28;19925;-81
2021/08/04 06:50:08;;;;;;;;;;;;;;;18.14;100.00;98750.88;5088649;28;19960;-82
2021/08/04 06:52:35;;;;;;;;;;;;;;;17.49;100.00;98751.72;5092373;28;19925;-81
2021/08/04 06:55:02;;;;;;;;;;;;;;;17.68;100.00;98744.72;5077642;28;19925;-81
2021/08/04 06:57:29;;;;;;;;;;;;;;;17.52;100.00;98742.31;5085320;28;19924;-81
2021/08/04 06:59:56;;;;;;;;;;;;;;;18.44;100.00;98744.88;5076089;28;20389;-80
2021/08/04 07:02:23;;;;;;;;;;;;;;;19.87;100.00;98755.13;5092321;28;19990;-81
2021/08/04 07:04:51;;;;;;;;;;;;;;;20.86;100.00;98741.41;5094802;28;19930;-81
2021/08/04 07:07:19;;;;;;;;;;;;;;;22.20;100.00;98734.22;5076322;28;19925;-82
2021/08/04 07:09:46;;;;;;;;;;;;;;;23.24;100.00;98732.19;5076561;28;19924;-82
2021/08/04 07:12:13;;;;;;;;;;;;;;;24.03;100.00;98723.88;5092900;28;20018;-83
2021/08/04 07:14:41;;;;;;;;;;;;;;;24.84;100.00;98718.34;5102615;28;19924;-82
2021/08/04 07:17:08;;;;;;;;;;;;;;;25.63;100.00;98703.75;5092561;28;20307;-82
2021/08/04 07:19:35;;;;;;;;;;;;;;;26.48;100.00;98703.06;5103246;28;19923;-83
2021/08/04 07:22:02;;;;;;;;;;;;;;;27.42;100.00;98699.63;5073074;28;19985;-75
2021/08/04 07:24:29;;;;;;;;;;;;;;;27.58;100.00;98701.44;5087064;28;20023;-75
2021/08/04 07:26:56;;;;;;;;;;;;;;;27.95;100.00;98694.78;5086443;28;19993;-75
2021/08/04 07:29:23;;;;;;;;;;;;;;;28.90;100.00;98692.28;5101982;28;20036;-76
2021/08/04 07:31:51;;;;;;;;;;;;;;;29.44;100.00;98691.53;5107531;28;20006;-75
2021/08/04 07:34:22;;;;;;;;;;;;;;;28.44;100.00;98695.13;5111263;28;19931;-75
2021/08/04 07:36:49;;;;;;;;;;;;;;;28.93;100.00;98696.16;5103703;28;19931;-75
2021/08/04 07:39:17;;;;;;;;;;;;;;;28.04;100.00;98692.25;5103311;28;19924;-75
2021/08/04 07:41:44;;;;;;;;;;;;;;;26.85;100.00;98690.88;5105000;28;19977;-75
2021/08/04 07:44:12;;;;;;;;;;;;;;;27.67;100.00;98680.16;5113034;28;19924;-74
2021/08/04 07:46:49;;;;;;;;;;;;;;;27.62;100.00;98690.44;5093625;28;19928;-75
2021/08/04 07:49:16;;;;;;;;;;;;;;;29.19;100.00;98685.34;5091485;28;19960;-74
2021/08/04 07:51:43;;;;;;;;;;;;;;;30.05;100.00;98684.19;5093289;28;19928;-75
2021/08/04 07:54:10;;;;;;;;;;;;;;;30.46;100.00;98672.56;5092259;28;19924;-74
2021/08/04 07:56:38;;;;;;;;;;;;;;;31.15;100.00;98680.91;5098335;28;20299;-75
2021/08/04 07:59:06;;;;;;;;;;;;;;;31.06;100.00;98672.81;5108617;28;19924;-75
2021/08/04 08:01:33;;;;;;;;;;;;;;;31.17;100.00;98678.22;5109663;28;19932;-74
2021/08/04 08:04:00;;;;;;;;;;;;;;;31.44;100.00;98682.34;5109466;28;19935;-76
2021/08/04 08:06:27;;;;;;;;;;;;;;;31.93;100.00;98674.06;5107949;28;19935;-75
2021/08/04 08:08:54;;;;;;;;;;;;;;;32.28;100.00;98675.94;5111659;28;19927;-74
2021/08/04 08:11:21;;;;;;;;;;;;;;;30.76;100.00;98682.13;5109824;27;19945;-75
2021/08/04 08:13:48;;;;;;;;;;;;;;;31.56;100.00;98671.94;5090380;28;20026;-75
2021/08/04 08:16:15;;;;;;;;;;;;;;;29.78;100.00;98681.50;5106828;28;20545;-75
2021/08/04 08:18:42;;;;;;;;;;;;;;;27.96;100.00;98696.34;5106968;28;19931;-75
2021/08/04 08:21:09;;;;;;;;;;;;;;;29.41;100.00;98695.53;5106110;28;19924;-75
2021/08/04 08:23:36;;;;;;;;;;;;;;;28.84;100.00;98683.00;5092517;28;20477;-75
2021/08/04 08:26:03;;;;;;;;;;;;;;;30.57;100.00;98684.53;5097426;28;19927;-75
2021/08/04 08:28:31;;;;;;;;;;;;;;;31.10;100.00;98678.97;5107243;28;19931;-74
2021/08/04 08:30:58;;;;;;;;;;;;;;;31.52;100.00;98673.69;5103312;28;19959;-75
2021/08/04 08:33:25;;;;;;;;;;;;;;;31.93;100.00;98670.44;5094368;28;19989;-74
2021/08/04 08:35:52;;;;;;;;;;;;;;;31.86;100.00;98671.97;5098087;28;20030;-73
2021/08/04 08:38:20;;;;;;;;;;;;;;;31.79;100.00;98675.63;5105788;28;19932;-76
2021/08/04 08:40:48;;;;;;;;;;;;;;;31.90;100.00;98668.69;5098487;28;19924;-74
2021/08/04 08:43:18;;;;;;;;;;;;;;;30.04;100.00;98671.88;5091831;28;20022;-76
2021/08/04 08:45:49;;;;;;;;;;;;;;;31.37;100.00;98668.66;5091560;28;19932;-76
2021/08/04 08:48:17;;;;;;;;;;;;;;;32.00;100.00;98664.63;5090523;28;19969;-76
2021/08/04 08:50:45;;;;;;;;;;;;;;;29.91;100.00;98676.97;5090734;28;19924;-75
2021/08/04 08:53:13;;;;;;;;;;;;;;;30.13;100.00;98685.03;5092212;28;20580;-75
2021/08/04 08:55:40;;;;;;;;;;;;;;;28.49;100.00;98692.16;5093953;28;19924;-75
2021/08/04 08:58:08;;;;;;;;;;;;;;;25.19;100.00;98704.09;5088659;28;19947;-75
2021/08/04 09:00:35;;;;;;;;;;;;;;;26.00;100.00;98701.06;5092565;28;19924;-75
2021/08/04 09:03:02;;;;;;;;;;;;;;;25.15;100.00;98697.09;5105951;28;19924;-75
2021/08/04 09:05:54;;;;;;;;;;;;;;;24.15;100.00;98711.91;5090923;28;19978;-75
2021/08/04 09:08:41;;;;;;;;;;;;;;;24.47;100.00;98706.59;5089859;28;19924;-75
2021/08/04 09:11:16;;;;;;;;;;;;;;;24.81;100.00;98702.28;5090930;28;19931;-74
2021/08/04 09:13:46;;;;;;;;;;;;;;;26.46;100.00;98703.59;5092213;28;19940;-76
2021/08/04 09:16:18;;;;;;;;;;;;;;;25.91;100.00;98683.44;5087991;28;19959;-75
2021/08/04 09:18:48;;;;;;;;;;;;;;;26.52;100.00;98689.22;5096845;28;19924;-75
2021/08/04 09:21:16;;;;;;;;;;;;;;;26.46;100.00;98689.28;5089213;28;19924;-75
2021/08/04 09:23:50;;;;;;;;;;;;;;;26.20;100.00;98689.09;5092599;28;20517;-75
2021/08/04 09:26:21;;;;;;;;;;;;;;;26.78;100.00;98680.78;5096866;28;19928;-75
2021/08/04 09:28:50;;;;;;;;;;;;;;;25.68;100.00;98682.88;5104289;28;19950;-74
2021/08/04 09:31:17;;;;;;;;;;;;;;;26.04;100.00;98692.16;5105278;28;19963;-75
2021/08/04 09:33:44;;;;;;;;;;;;;;;25.33;100.00;98680.09;5096107;28;19924;-76
2021/08/04 09:36:17;;;;;;;;;;;;;;;24.76;100.00;98688.81;5089772;28;20337;-74
2021/08/04 09:39:00;;;;;;;;;;;;;;;25.90;100.00;98682.66;5099410;28;19924;-75
2021/08/04 09:41:27;;;;;;;;;;;;;;;25.65;100.00;98683.19;5092837;28;19924;-75
2021/08/04 09:44:04;;;;;;;;;;;;;;;26.46;100.00;98668.47;5091349;28;20012;-75
2021/08/04 09:46:32;;;;;;;;;;;;;;;26.57;100.00;98667.56;5090313;28;19928;-75
2021/08/04 09:49:13;;;;;;;;;;;;;;;25.99;100.00;98664.38;5091505;28;20357;-75
2021/08/04 09:54:13;;;;;;;;;;;;;;;26.48;100.00;98655.16;5127885;27;20721;-78
2021/08/04 09:56:48;;;;;;;;;;;;;;;24.95;100.00;98672.56;5127884;27;20074;-77
2021/08/04 09:59:15;;;;;;;;;;;;;;;25.55;100.00;98668.44;5122050;28;19947;-76
2021/08/04 10:01:42;;;;;;;;;;;;;;;23.35;100.00;98681.72;5119260;27;19924;-74
2021/08/04 10:04:11;;;;;;;;;;;;;;;24.66;100.00;98673.28;5114927;28;20465;-74
2021/08/04 10:06:40;;;;;;;;;;;;;;;24.55;100.00;98671.22;5112295;27;19931;-76
2021/08/04 10:09:09;;;;;;;;;;;;;;;25.00;100.00;98663.19;5121554;28;19963;-75
2021/08/04 10:11:47;;;;;;;;;;;;;;;25.05;100.00;98655.88;5094708;28;19924;-75
2021/08/04 10:14:16;;;;;;;;;;;;;;;24.81;100.00;98658.66;5119378;27;19932;-76
2021/08/04 10:16:44;;;;;;;;;;;;;;;24.87;100.00;98648.72;5121484;28;19927;-75
2021/08/04 10:19:11;;;;;;;;;;;;;;;24.34;100.00;98649.31;5127579;27;19931;-75
2021/08/04 10:21:42;;;;;;;;;;;;;;;24.89;100.00;98643.25;5122692;28;20485;-75
2021/08/04 10:24:11;;;;;;;;;;;;;;;25.27;100.00;98647.88;5107588;28;19923;-74
2021/08/04 10:26:38;;;;;;;;;;;;;;;24.01;100.00;98652.28;5121816;28;20366;-74
2021/08/04 10:29:05;;;;;;;;;;;;;;;25.02;100.00;98648.38;5126544;27;19936;-74
2021/08/04 10:31:33;;;;;;;;;;;;;;;23.45;100.00;98651.63;5126464;28;20030;-74
2021/08/04 10:34:01;;;;;;;;;;;;;;;24.25;100.00;98646.75;5123066;27;20278;-74
2021/08/04 10:36:32;;;;;;;;;;;;;;;25.40;100.00;98639.47;5126749;27;19955;-74
2021/08/04 10:39:03;;;;;;;;;;;;;;;25.46;100.00;98642.28;5125158;28;20402;-73
2021/08/04 10:41:31;;;;;;;;;;;;;;;24.35;100.00;98645.13;5125971;27;20010;-74
2021/08/04 10:44:03;;;;;;;;;;;;;;;23.73;100.00;98654.44;5127388;28;19973;-74
2021/08/04 10:46:30;;;;;;;;;;;;;;;24.75;100.00;98650.09;5119618;27;19945;-73
2021/08/04 10:48:58;;;;;;;;;;;;;;;24.25;100.00;98649.63;5120511;28;20345;-73
2021/08/04 10:51:25;;;;;;;;;;;;;;;23.23;100.00;98650.84;5120395;28;20425;-74
2021/08/04 10:54:01;;;;;;;;;;;;;;;22.75;100.00;98660.41;5120951;28;19932;-73
2021/08/04 10:56:31;;;;;;;;;;;;;;;22.52;100.00;98664.50;5121211;27;19928;-73
2021/08/04 10:59:08;;;;;;;;;;;;;;;23.05;100.00;98664.31;5120045;28;19927;-73
2021/08/04 11:01:36;;;;;;;;;;;;;;;23.57;100.00;98669.50;5126171;28;19930;-73
2021/08/04 11:04:04;;;;;;;;;;;;;;;22.71;100.00;98665.59;5092036;28;19931;-73
2021/08/04 11:06:31;;;;;;;;;;;;;;;22.97;100.00;98669.00;5107499;28;19931;-74
2021/08/04 11:09:17;;;;;;;;;;;;;;;22.77;100.00;98666.38;5099003;28;19924;-74
2021/08/04 11:11:57;;;;;;;;;;;;;;;22.35;100.00;98669.34;5112911;28;19930;-74
2021/08/04 11:14:33;;;;;;;;;;;;;;;22.49;100.00;98684.66;5113788;28;19979;-74
2021/08/04 11:17:01;;;;;;;;;;;;;;;22.34;100.00;98693.41;5095052;28;19931;-74
2021/08/04 11:19:34;;;;;;;;;;;;;;;21.82;100.00;98705.56;5099991;28;19928;-75
2021/08/04 11:22:17;;;;;;;;;;;;;;;21.88;100.00;98695.00;5112613;28;19931;-74
2021/08/04 11:24:54;;;;;;;;;;;;;;;21.23;100.00;98699.69;5112880;28;19924;-74
2021/08/04 11:27:25;;;;;;;;;;;;;;;21.33;100.00;98686.84;5112412;28;19968;-74
2021/08/04 11:29:52;;;;;;;;;;;;;;;21.72;100.00;98685.03;5106598;28;19970;-74
2021/08/04 11:32:20;;;;;;;;;;;;;;;22.03;100.00;98687.84;5094697;28;20385;-74
2021/08/04 11:34:47;;;;;;;;;;;;;;;21.89;100.00;98694.50;5105685;28;20348;-74
2021/08/04 11:37:15;;;;;;;;;;;;;;;22.11;100.00;98688.13;5108289;28;20016;-77
2021/08/04 11:39:56;;;;;;;;;;;;;;;22.00;100.00;98688.06;5098465;28;19924;-74
2021/08/04 11:42:24;;;;;;;;;;;;;;;22.36;100.00;98676.59;5109558;28;20374;-76
2021/08/04 11:44:51;;;;;;;;;;;;;;;22.08;100.00;98667.19;5106861;28;19930;-76
2021/08/04 11:47:19;;;;;;;;;;;;;;;22.51;100.00;98670.69;5077668;28;19924;-76
2021/08/04 11:49:48;;;;;;;;;;;;;;;22.59;100.00;98683.94;5092490;28;19974;-76
2021/08/04 11:52:16;;;;;;;;;;;;;;;22.74;100.00;98683.69;5099690;28;19927;-76
2021/08/04 11:54:44;;;;;;;;;;;;;;;22.78;100.00;98676.47;5099293;28;19928;-75
2021/08/04 11:57:13;;;;;;;;;;;;;;;22.51;100.00;98665.00;5098085;28;19927;-75
2021/08/04 12:02:58;;;;;;;;;;;;;;;22.30;100.00;98675.78;5104889;28;19930;-76
2021/08/04 12:05:25;;;;;;;;;;;;;;;22.22;100.00;98654.81;5107073;28;19928;-76
2021/08/04 12:07:52;;;;;;;;;;;;;;;21.98;100.00;98665.03;5103030;28;19978;-75
2021/08/04 12:10:23;;;;;;;;;;;;;;;22.23;100.00;98662.06;5097620;28;19924;-75
2021/08/04 12:12:53;;;;;;;;;;;;;;;22.25;100.00;98658.72;5112347;28;19931;-76
2021/08/04 12:15:24;;;;;;;;;;;;;;;21.81;100.00;98670.66;5107784;28;19936;-76
2021/08/04 12:18:05;;;;;;;;;;;;;;;21.68;100.00;98660.97;5103945;28;19932;-76
2021/08/04 12:20:34;;;;;;;;;;;;;;;21.52;100.00;98653.94;5110378;28;19924;-75
2021/08/04 12:23:09;;;;;;;;;;;;;;;21.18;100.00;98675.66;5099943;28;19924;-75
2021/08/04 12:25:37;;;;;;;;;;;;;;;20.44;100.00;98661.72;5094492;28;20001;-77
2021/08/04 12:28:05;;;;;;;;;;;;;;;21.13;100.00;98669.91;5092969;28;19934;-76
2021/08/04 12:30:38;;;;;;;;;;;;;;;21.33;100.00;98666.97;5093820;28;19923;-77
2021/08/04 12:33:23;;;;;;;;;;;;;;;20.73;100.00;98662.31;5092354;28;19930;-77
2021/08/04 12:36:02;;;;;;;;;;;;;;;19.67;100.00;98667.22;5074132;28;20466;-76
2021/08/04 12:38:40;;;;;;;;;;;;;;;19.20;100.00;98667.50;5093136;28;19930;-76
2021/08/04 12:41:16;;;;;;;;;;;;;;;19.36;100.00;98681.94;5090670;28;19928;-76
2021/08/04 12:43:43;;;;;;;;;;;;;;;19.04;100.00;98685.78;5090805;28;19928;-76
2021/08/04 12:46:11;;;;;;;;;;;;;;;19.13;100.00;98685.66;5090540;28;20014;-76
2021/08/04 12:48:39;;;;;;;;;;;;;;;19.64;100.00;98683.13;5091283;28;19928;-76
2021/08/04 12:51:11;;;;;;;;;;;;;;;20.26;100.00;98681.91;5093216;28;19956;-76